This is the latest recevied weather packets stored in our database for station/object W0VI. If no packets are shown the sender has not sent any weather packets the latest 10 day(s).
| Time | Temp. | Humidity | Pressure | Rain* | Wind** | Luminosity | Snow |
|---|---|---|---|---|---|---|---|
| 1787505229 | 22.22° C | 56% | 1020.6 hPa | 0 mm | - | 705 W/m² | - |
| 1787504928 | 22.22° C | 55% | 1020.5 hPa | 0 mm | - | 170 W/m² | - |
| 1787504624 | 22.22° C | 53% | 1020.5 hPa | 0 mm | - | 735 W/m² | - |
| 1787504320 | 21.67° C | 60% | 1020.7 hPa | 0 mm | - | 687 W/m² | - |
| 1787504016 | 22.22° C | 59% | 1020.5 hPa | 0 mm | - | 122 W/m² | - |
| 1787503715 | 22.22° C | 58% | 1020.7 hPa | 0 mm | - | 215 W/m² | - |
| 1787503412 | 21.67° C | 58% | 1020.7 hPa | 0 mm | - | 731 W/m² | - |
| 1787503107 | 22.22° C | 60% | 1020.9 hPa | 0 mm | - | 143 W/m² | - |
| 1787502804 | 22.78° C | 59% | 1020.8 hPa | 0 mm | - | 662 W/m² | - |
| 1787502498 | 22.78° C | 61% | 1020.7 hPa | 0 mm | - | 631 W/m² | - |
| 1787502197 | 22.78° C | 60% | 1020.7 hPa | 0 mm | - | 616 W/m² | - |
| 1787501893 | 22.22° C | 63% | 1021 hPa | 0 mm | - | 608 W/m² | - |
| 1787501590 | 21.67° C | 63% | 1020.9 hPa | 0 mm | - | 632 W/m² | - |
| 1787501285 | 22.22° C | 62% | 1021.1 hPa | 0 mm | - | 634 W/m² | - |
| 1787500981 | 22.22° C | 62% | 1020.9 hPa | 0 mm | - | 649 W/m² | - |
| 1787500676 | 21.67° C | 64% | 1020.9 hPa | 0 mm | - | 635 W/m² | - |
| 1787500372 | 22.22° C | 62% | 1021.1 hPa | 0 mm | - | 602 W/m² | - |
| 1787500071 | 21.67° C | 63% | 1021 hPa | 0 mm | - | 606 W/m² | - |
| 1787499765 | 21.67° C | 62% | 1020.8 hPa | 0 mm | - | 593 W/m² | - |
| 1787499460 | 21.11° C | 63% | 1021 hPa | 0 mm | - | 572 W/m² | - |
| 1787499156 | 21.11° C | 63% | 1020.9 hPa | 0 mm | - | 553 W/m² | - |
| 1787498853 | 20.56° C | 66% | 1020.9 hPa | 0 mm | - | 563 W/m² | - |
| 1787498550 | 20.56° C | 67% | 1021 hPa | 0 mm | - | 557 W/m² | - |
| 1787498246 | 21.11° C | 65% | 1020.9 hPa | 0 mm | - | 528 W/m² | - |
| 1787497942 | 21.11° C | 64% | 1020.9 hPa | 0 mm | - | 527 W/m² | - |
* Rain latest hour (hover to see other rain measurements)
** Current wind speed in m/s (hover to see current wind gust speed)